sensor_id;sensor_type;location;lat;lon;timestamp;P1;durP1;ratioP1;P2;durP2;ratioP2
62030;SDS011;62035;52.094;5.112;2023-08-06T00:02:14;12.50;;;7.53;;
62030;SDS011;62035;52.094;5.112;2023-08-06T00:04:41;12.25;;;7.70;;
62030;SDS011;62035;52.094;5.112;2023-08-06T00:07:08;15.98;;;8.45;;
62030;SDS011;62035;52.094;5.112;2023-08-06T00:09:36;18.33;;;9.48;;
62030;SDS011;62035;52.094;5.112;2023-08-06T00:12:05;19.90;;;10.88;;
62030;SDS011;62035;52.094;5.112;2023-08-06T00:14:32;14.77;;;8.68;;
62030;SDS011;62035;52.094;5.112;2023-08-06T00:17:00;16.00;;;9.02;;
62030;SDS011;62035;52.094;5.112;2023-08-06T00:19:27;16.42;;;7.90;;
62030;SDS011;62035;52.094;5.112;2023-08-06T00:21:54;16.95;;;7.90;;
62030;SDS011;62035;52.094;5.112;2023-08-06T00:24:21;13.02;;;8.18;;
62030;SDS011;62035;52.094;5.112;2023-08-06T00:26:48;16.20;;;8.48;;
62030;SDS011;62035;52.094;5.112;2023-08-06T00:29:17;12.00;;;7.68;;
62030;SDS011;62035;52.094;5.112;2023-08-06T00:31:44;26.30;;;12.55;;
62030;SDS011;62035;52.094;5.112;2023-08-06T00:34:11;13.68;;;8.30;;
62030;SDS011;62035;52.094;5.112;2023-08-06T00:36:39;18.77;;;9.68;;
62030;SDS011;62035;52.094;5.112;2023-08-06T00:39:06;15.88;;;8.63;;
62030;SDS011;62035;52.094;5.112;2023-08-06T00:41:33;14.10;;;7.72;;
62030;SDS011;62035;52.094;5.112;2023-08-06T00:44:00;10.45;;;6.93;;
62030;SDS011;62035;52.094;5.112;2023-08-06T00:46:29;17.65;;;8.63;;
62030;SDS011;62035;52.094;5.112;2023-08-06T00:48:57;16.52;;;8.73;;
62030;SDS011;62035;52.094;5.112;2023-08-06T00:51:24;17.02;;;7.05;;
62030;SDS011;62035;52.094;5.112;2023-08-06T00:53:52;13.30;;;7.25;;
62030;SDS011;62035;52.094;5.112;2023-08-06T00:56:19;11.85;;;7.43;;
62030;SDS011;62035;52.094;5.112;2023-08-06T00:58:47;12.80;;;7.38;;
62030;SDS011;62035;52.094;5.112;2023-08-06T01:01:14;13.70;;;7.28;;
62030;SDS011;62035;52.094;5.112;2023-08-06T01:03:43;10.70;;;6.70;;
62030;SDS011;62035;52.094;5.112;2023-08-06T01:06:10;15.57;;;8.00;;
62030;SDS011;62035;52.094;5.112;2023-08-06T01:08:39;14.23;;;7.07;;
62030;SDS011;62035;52.094;5.112;2023-08-06T01:11:15;12.43;;;6.93;;
62030;SDS011;62035;52.094;5.112;2023-08-06T01:13:50;16.52;;;7.95;;
62030;SDS011;62035;52.094;5.112;2023-08-06T01:16:25;10.45;;;7.28;;
62030;SDS011;62035;52.094;5.112;2023-08-06T01:18:54;10.68;;;6.55;;
62030;SDS011;62035;52.094;5.112;2023-08-06T01:21:23;14.05;;;7.50;;
62030;SDS011;62035;52.094;5.112;2023-08-06T01:23:50;14.15;;;8.23;;
62030;SDS011;62035;52.094;5.112;2023-08-06T01:26:19;10.90;;;6.65;;
62030;SDS011;62035;52.094;5.112;2023-08-06T01:28:55;11.50;;;6.13;;
62030;SDS011;62035;52.094;5.112;2023-08-06T01:31:27;11.20;;;6.18;;
62030;SDS011;62035;52.094;5.112;2023-08-06T01:33:57;11.90;;;6.75;;
62030;SDS011;62035;52.094;5.112;2023-08-06T01:36:27;10.05;;;6.50;;
62030;SDS011;62035;52.094;5.112;2023-08-06T01:38:55;9.13;;;5.50;;
62030;SDS011;62035;52.094;5.112;2023-08-06T01:41:23;10.40;;;6.07;;
62030;SDS011;62035;52.094;5.112;2023-08-06T01:43:50;9.68;;;6.03;;
62030;SDS011;62035;52.094;5.112;2023-08-06T01:46:17;11.38;;;6.53;;
62030;SDS011;62035;52.094;5.112;2023-08-06T01:48:44;10.55;;;6.50;;
62030;SDS011;62035;52.094;5.112;2023-08-06T01:51:12;9.68;;;6.65;;
62030;SDS011;62035;52.094;5.112;2023-08-06T01:53:40;8.30;;;5.95;;
62030;SDS011;62035;52.094;5.112;2023-08-06T01:56:07;8.90;;;5.50;;
62030;SDS011;62035;52.094;5.112;2023-08-06T01:58:35;8.95;;;5.88;;
62030;SDS011;62035;52.094;5.112;2023-08-06T02:01:02;10.68;;;6.30;;
62030;SDS011;62035;52.094;5.112;2023-08-06T02:03:29;9.55;;;5.97;;
62030;SDS011;62035;52.094;5.112;2023-08-06T02:05:57;8.80;;;6.30;;
62030;SDS011;62035;52.094;5.112;2023-08-06T02:08:24;10.15;;;6.28;;
62030;SDS011;62035;52.094;5.112;2023-08-06T02:10:53;9.70;;;5.78;;
62030;SDS011;62035;52.094;5.112;2023-08-06T02:13:20;9.00;;;6.10;;
62030;SDS011;62035;52.094;5.112;2023-08-06T02:15:47;11.05;;;5.93;;
62030;SDS011;62035;52.094;5.112;2023-08-06T02:18:14;13.77;;;6.32;;
62030;SDS011;62035;52.094;5.112;2023-08-06T02:20:42;8.30;;;6.03;;
62030;SDS011;62035;52.094;5.112;2023-08-06T02:23:09;12.63;;;6.65;;
62030;SDS011;62035;52.094;5.112;2023-08-06T02:25:36;9.95;;;6.22;;
62030;SDS011;62035;52.094;5.112;2023-08-06T02:28:05;7.97;;;5.70;;
62030;SDS011;62035;52.094;5.112;2023-08-06T02:30:32;8.43;;;5.80;;
62030;SDS011;62035;52.094;5.112;2023-08-06T02:32:59;11.80;;;5.93;;
62030;SDS011;62035;52.094;5.112;2023-08-06T02:35:27;8.57;;;5.70;;
62030;SDS011;62035;52.094;5.112;2023-08-06T02:37:54;9.25;;;6.38;;
62030;SDS011;62035;52.094;5.112;2023-08-06T02:40:21;7.70;;;5.80;;
62030;SDS011;62035;52.094;5.112;2023-08-06T02:42:48;10.00;;;6.35;;
62030;SDS011;62035;52.094;5.112;2023-08-06T02:45:17;9.55;;;5.93;;
62030;SDS011;62035;52.094;5.112;2023-08-06T02:47:44;8.93;;;6.38;;
62030;SDS011;62035;52.094;5.112;2023-08-06T02:50:11;10.32;;;5.85;;
62030;SDS011;62035;52.094;5.112;2023-08-06T02:52:38;9.65;;;6.65;;
62030;SDS011;62035;52.094;5.112;2023-08-06T02:55:06;11.18;;;6.65;;
62030;SDS011;62035;52.094;5.112;2023-08-06T02:57:34;7.30;;;6.07;;
62030;SDS011;62035;52.094;5.112;2023-08-06T03:00:01;8.93;;;6.65;;
62030;SDS011;62035;52.094;5.112;2023-08-06T03:02:30;10.48;;;6.50;;
62030;SDS011;62035;52.094;5.112;2023-08-06T03:04:57;9.73;;;6.75;;
62030;SDS011;62035;52.094;5.112;2023-08-06T03:07:24;12.50;;;7.18;;
62030;SDS011;62035;52.094;5.112;2023-08-06T03:09:51;10.40;;;7.15;;
62030;SDS011;62035;52.094;5.112;2023-08-06T03:12:18;10.75;;;7.53;;
62030;SDS011;62035;52.094;5.112;2023-08-06T03:14:46;13.32;;;7.35;;
62030;SDS011;62035;52.094;5.112;2023-08-06T03:17:13;10.48;;;7.43;;
62030;SDS011;62035;52.094;5.112;2023-08-06T03:19:42;12.73;;;7.50;;
62030;SDS011;62035;52.094;5.112;2023-08-06T03:22:09;9.95;;;6.95;;
62030;SDS011;62035;52.094;5.112;2023-08-06T03:24:36;9.77;;;7.07;;
62030;SDS011;62035;52.094;5.112;2023-08-06T03:27:03;13.23;;;7.22;;
62030;SDS011;62035;52.094;5.112;2023-08-06T03:29:31;13.13;;;8.30;;
62030;SDS011;62035;52.094;5.112;2023-08-06T03:31:58;9.88;;;7.35;;
62030;SDS011;62035;52.094;5.112;2023-08-06T03:34:25;9.00;;;7.38;;
62030;SDS011;62035;52.094;5.112;2023-08-06T03:36:54;10.00;;;7.40;;
62030;SDS011;62035;52.094;5.112;2023-08-06T03:39:21;11.77;;;7.80;;
62030;SDS011;62035;52.094;5.112;2023-08-06T03:41:48;11.07;;;8.23;;
62030;SDS011;62035;52.094;5.112;2023-08-06T03:44:16;11.43;;;8.65;;
62030;SDS011;62035;52.094;5.112;2023-08-06T03:46:43;14.43;;;8.15;;
62030;SDS011;62035;52.094;5.112;2023-08-06T03:49:10;12.07;;;7.95;;
62030;SDS011;62035;52.094;5.112;2023-08-06T03:51:38;12.43;;;8.95;;
62030;SDS011;62035;52.094;5.112;2023-08-06T03:54:06;10.52;;;8.07;;
62030;SDS011;62035;52.094;5.112;2023-08-06T03:56:34;11.93;;;8.50;;
62030;SDS011;62035;52.094;5.112;2023-08-06T03:59:01;11.73;;;7.93;;
62030;SDS011;62035;52.094;5.112;2023-08-06T04:01:28;14.55;;;9.00;;
62030;SDS011;62035;52.094;5.112;2023-08-06T04:03:55;11.32;;;8.80;;
62030;SDS011;62035;52.094;5.112;2023-08-06T04:06:23;11.43;;;8.38;;
62030;SDS011;62035;52.094;5.112;2023-08-06T04:08:50;15.90;;;9.55;;
62030;SDS011;62035;52.094;5.112;2023-08-06T04:11:18;11.52;;;8.77;;
62030;SDS011;62035;52.094;5.112;2023-08-06T04:13:46;11.15;;;8.85;;
62030;SDS011;62035;52.094;5.112;2023-08-06T04:16:13;15.57;;;9.38;;
62030;SDS011;62035;52.094;5.112;2023-08-06T04:18:40;12.85;;;8.82;;
62030;SDS011;62035;52.094;5.112;2023-08-06T04:21:07;13.15;;;9.98;;
62030;SDS011;62035;52.094;5.112;2023-08-06T04:23:35;11.77;;;8.30;;
62030;SDS011;62035;52.094;5.112;2023-08-06T04:26:02;13.25;;;9.60;;
62030;SDS011;62035;52.094;5.112;2023-08-06T04:28:31;13.27;;;9.70;;
62030;SDS011;62035;52.094;5.112;2023-08-06T04:30:58;14.13;;;10.13;;
62030;SDS011;62035;52.094;5.112;2023-08-06T04:33:26;17.98;;;10.43;;
62030;SDS011;62035;52.094;5.112;2023-08-06T04:35:56;14.55;;;10.02;;
62030;SDS011;62035;52.094;5.112;2023-08-06T04:38:23;13.68;;;10.38;;
62030;SDS011;62035;52.094;5.112;2023-08-06T04:40:51;18.67;;;10.93;;
62030;SDS011;62035;52.094;5.112;2023-08-06T04:43:19;13.82;;;10.45;;
62030;SDS011;62035;52.094;5.112;2023-08-06T04:45:48;13.20;;;10.23;;
62030;SDS011;62035;52.094;5.112;2023-08-06T04:48:15;15.50;;;10.93;;
62030;SDS011;62035;52.094;5.112;2023-08-06T04:50:43;13.32;;;9.82;;
62030;SDS011;62035;52.094;5.112;2023-08-06T04:53:11;14.60;;;10.20;;
62030;SDS011;62035;52.094;5.112;2023-08-06T04:55:39;12.68;;;8.88;;
62030;SDS011;62035;52.094;5.112;2023-08-06T04:58:06;16.08;;;9.82;;
62030;SDS011;62035;52.094;5.112;2023-08-06T05:00:34;11.65;;;8.15;;
62030;SDS011;62035;52.094;5.112;2023-08-06T05:03:02;18.90;;;8.02;;
62030;SDS011;62035;52.094;5.112;2023-08-06T05:05:29;15.98;;;8.68;;
62030;SDS011;62035;52.094;5.112;2023-08-06T05:07:57;16.08;;;8.23;;
62030;SDS011;62035;52.094;5.112;2023-08-06T05:10:24;13.23;;;8.20;;
62030;SDS011;62035;52.094;5.112;2023-08-06T05:12:52;14.10;;;7.88;;
62030;SDS011;62035;52.094;5.112;2023-08-06T05:15:19;12.45;;;7.53;;
62030;SDS011;62035;52.094;5.112;2023-08-06T05:17:47;10.77;;;7.55;;
62030;SDS011;62035;52.094;5.112;2023-08-06T05:20:15;15.32;;;8.52;;
62030;SDS011;62035;52.094;5.112;2023-08-06T05:22:44;13.25;;;8.48;;
62030;SDS011;62035;52.094;5.112;2023-08-06T05:25:12;11.35;;;8.43;;
62030;SDS011;62035;52.094;5.112;2023-08-06T05:27:40;12.55;;;8.20;;
62030;SDS011;62035;52.094;5.112;2023-08-06T05:30:07;14.95;;;9.35;;
62030;SDS011;62035;52.094;5.112;2023-08-06T05:32:35;15.82;;;10.40;;
62030;SDS011;62035;52.094;5.112;2023-08-06T05:35:03;16.55;;;10.70;;
62030;SDS011;62035;52.094;5.112;2023-08-06T05:37:32;16.10;;;10.30;;
62030;SDS011;62035;52.094;5.112;2023-08-06T05:39:59;17.27;;;11.00;;
62030;SDS011;62035;52.094;5.112;2023-08-06T05:42:27;17.30;;;11.18;;
62030;SDS011;62035;52.094;5.112;2023-08-06T05:44:54;18.38;;;10.75;;
62030;SDS011;62035;52.094;5.112;2023-08-06T05:47:21;14.05;;;8.95;;
62030;SDS011;62035;52.094;5.112;2023-08-06T05:49:48;13.70;;;8.20;;
62030;SDS011;62035;52.094;5.112;2023-08-06T05:52:16;10.18;;;6.80;;
62030;SDS011;62035;52.094;5.112;2023-08-06T05:54:44;5.38;;;3.85;;
62030;SDS011;62035;52.094;5.112;2023-08-06T05:57:11;4.82;;;3.42;;
62030;SDS011;62035;52.094;5.112;2023-08-06T05:59:39;7.70;;;2.75;;
62030;SDS011;62035;52.094;5.112;2023-08-06T06:02:07;4.65;;;2.72;;
62030;SDS011;62035;52.094;5.112;2023-08-06T06:04:34;5.15;;;3.50;;
62030;SDS011;62035;52.094;5.112;2023-08-06T06:07:02;4.63;;;3.58;;
62030;SDS011;62035;52.094;5.112;2023-08-06T06:09:29;5.90;;;3.60;;
62030;SDS011;62035;52.094;5.112;2023-08-06T06:11:58;5.13;;;4.00;;
62030;SDS011;62035;52.094;5.112;2023-08-06T06:14:25;5.43;;;3.55;;
62030;SDS011;62035;52.094;5.112;2023-08-06T06:16:52;6.28;;;3.65;;
62030;SDS011;62035;52.094;5.112;2023-08-06T06:19:21;7.22;;;3.78;;
62030;SDS011;62035;52.094;5.112;2023-08-06T06:21:48;5.97;;;3.80;;
62030;SDS011;62035;52.094;5.112;2023-08-06T06:24:15;5.55;;;4.05;;
62030;SDS011;62035;52.094;5.112;2023-08-06T06:26:42;5.70;;;4.07;;
62030;SDS011;62035;52.094;5.112;2023-08-06T06:29:11;6.18;;;4.18;;
62030;SDS011;62035;52.094;5.112;2023-08-06T06:31:38;7.75;;;4.68;;
62030;SDS011;62035;52.094;5.112;2023-08-06T06:34:05;5.35;;;4.40;;
62030;SDS011;62035;52.094;5.112;2023-08-06T06:36:32;5.03;;;3.85;;
62030;SDS011;62035;52.094;5.112;2023-08-06T06:38:59;4.53;;;3.88;;
62030;SDS011;62035;52.094;5.112;2023-08-06T06:41:27;5.18;;;3.80;;
62030;SDS011;62035;52.094;5.112;2023-08-06T06:43:57;4.43;;;3.53;;
62030;SDS011;62035;52.094;5.112;2023-08-06T06:46:25;5.30;;;3.75;;
62030;SDS011;62035;52.094;5.112;2023-08-06T06:48:53;6.45;;;4.68;;
62030;SDS011;62035;52.094;5.112;2023-08-06T06:51:20;8.07;;;4.78;;
62030;SDS011;62035;52.094;5.112;2023-08-06T06:53:47;5.93;;;4.80;;
62030;SDS011;62035;52.094;5.112;2023-08-06T06:56:14;7.22;;;4.72;;
62030;SDS011;62035;52.094;5.112;2023-08-06T06:58:41;7.22;;;5.30;;
62030;SDS011;62035;52.094;5.112;2023-08-06T07:01:09;6.78;;;4.95;;
62030;SDS011;62035;52.094;5.112;2023-08-06T07:03:38;8.13;;;5.35;;
62030;SDS011;62035;52.094;5.112;2023-08-06T07:06:06;7.93;;;4.70;;
62030;SDS011;62035;52.094;5.112;2023-08-06T07:08:33;5.78;;;4.75;;
62030;SDS011;62035;52.094;5.112;2023-08-06T07:11:01;6.47;;;5.07;;
62030;SDS011;62035;52.094;5.112;2023-08-06T07:13:29;6.38;;;5.07;;
62030;SDS011;62035;52.094;5.112;2023-08-06T07:15:56;6.80;;;4.72;;
62030;SDS011;62035;52.094;5.112;2023-08-06T07:18:23;7.30;;;4.75;;
62030;SDS011;62035;52.094;5.112;2023-08-06T07:20:53;7.25;;;5.00;;
62030;SDS011;62035;52.094;5.112;2023-08-06T07:23:21;7.07;;;5.15;;
62030;SDS011;62035;52.094;5.112;2023-08-06T07:25:50;7.78;;;4.60;;
62030;SDS011;62035;52.094;5.112;2023-08-06T07:28:17;7.00;;;4.22;;
62030;SDS011;62035;52.094;5.112;2023-08-06T07:30:45;7.55;;;3.83;;
62030;SDS011;62035;52.094;5.112;2023-08-06T07:33:13;5.15;;;3.38;;
62030;SDS011;62035;52.094;5.112;2023-08-06T07:35:40;6.20;;;3.13;;
62030;SDS011;62035;52.094;5.112;2023-08-06T07:38:10;6.45;;;3.47;;
62030;SDS011;62035;52.094;5.112;2023-08-06T07:40:38;5.00;;;3.47;;
62030;SDS011;62035;52.094;5.112;2023-08-06T07:43:05;4.95;;;3.50;;
62030;SDS011;62035;52.094;5.112;2023-08-06T07:45:33;4.60;;;3.47;;
62030;SDS011;62035;52.094;5.112;2023-08-06T07:48:01;6.70;;;3.78;;
62030;SDS011;62035;52.094;5.112;2023-08-06T07:50:29;5.53;;;3.95;;
62030;SDS011;62035;52.094;5.112;2023-08-06T07:52:56;6.75;;;3.75;;
62030;SDS011;62035;52.094;5.112;2023-08-06T07:55:25;5.65;;;4.43;;
62030;SDS011;62035;52.094;5.112;2023-08-06T07:57:53;5.28;;;3.95;;
62030;SDS011;62035;52.094;5.112;2023-08-06T08:00:21;6.82;;;4.53;;
62030;SDS011;62035;52.094;5.112;2023-08-06T08:02:48;7.57;;;4.93;;
62030;SDS011;62035;52.094;5.112;2023-08-06T08:05:15;7.15;;;4.50;;
62030;SDS011;62035;52.094;5.112;2023-08-06T08:07:43;7.20;;;4.53;;
62030;SDS011;62035;52.094;5.112;2023-08-06T08:10:10;7.53;;;4.82;;
62030;SDS011;62035;52.094;5.112;2023-08-06T08:12:38;7.90;;;4.65;;
62030;SDS011;62035;52.094;5.112;2023-08-06T08:15:06;8.88;;;5.05;;
62030;SDS011;62035;52.094;5.112;2023-08-06T08:17:33;7.18;;;5.20;;
62030;SDS011;62035;52.094;5.112;2023-08-06T08:20:01;7.35;;;5.40;;
62030;SDS011;62035;52.094;5.112;2023-08-06T08:22:28;8.15;;;5.57;;
62030;SDS011;62035;52.094;5.112;2023-08-06T08:24:55;8.70;;;5.25;;
62030;SDS011;62035;52.094;5.112;2023-08-06T08:27:23;7.68;;;5.45;;
62030;SDS011;62035;52.094;5.112;2023-08-06T08:29:51;8.23;;;5.53;;
62030;SDS011;62035;52.094;5.112;2023-08-06T08:32:18;7.25;;;5.38;;
62030;SDS011;62035;52.094;5.112;2023-08-06T08:34:45;7.88;;;5.30;;
62030;SDS011;62035;52.094;5.112;2023-08-06T08:37:13;9.98;;;4.97;;
62030;SDS011;62035;52.094;5.112;2023-08-06T08:39:40;9.88;;;5.43;;
62030;SDS011;62035;52.094;5.112;2023-08-06T08:42:07;9.32;;;5.50;;
62030;SDS011;62035;52.094;5.112;2023-08-06T08:44:36;9.63;;;5.55;;
62030;SDS011;62035;52.094;5.112;2023-08-06T08:47:06;8.77;;;4.75;;
62030;SDS011;62035;52.094;5.112;2023-08-06T08:49:35;8.60;;;4.72;;
62030;SDS011;62035;52.094;5.112;2023-08-06T08:52:03;8.70;;;4.70;;
62030;SDS011;62035;52.094;5.112;2023-08-06T08:54:32;7.13;;;4.80;;
62030;SDS011;62035;52.094;5.112;2023-08-06T08:57:00;10.00;;;4.55;;
62030;SDS011;62035;52.094;5.112;2023-08-06T08:59:28;8.82;;;4.85;;
62030;SDS011;62035;52.094;5.112;2023-08-06T09:01:55;10.02;;;5.10;;
62030;SDS011;62035;52.094;5.112;2023-08-06T09:04:25;9.48;;;4.90;;
62030;SDS011;62035;52.094;5.112;2023-08-06T09:06:54;7.03;;;5.07;;
62030;SDS011;62035;52.094;5.112;2023-08-06T09:09:25;12.10;;;4.68;;
62030;SDS011;62035;52.094;5.112;2023-08-06T09:11:55;6.15;;;4.28;;
62030;SDS011;62035;52.094;5.112;2023-08-06T09:14:28;11.85;;;5.13;;
62030;SDS011;62035;52.094;5.112;2023-08-06T09:16:55;10.32;;;5.22;;
62030;SDS011;62035;52.094;5.112;2023-08-06T09:19:25;10.05;;;4.70;;
62030;SDS011;62035;52.094;5.112;2023-08-06T09:21:54;8.23;;;4.47;;
62030;SDS011;62035;52.094;5.112;2023-08-06T09:24:22;8.38;;;4.43;;
62030;SDS011;62035;52.094;5.112;2023-08-06T09:26:50;9.98;;;4.70;;
62030;SDS011;62035;52.094;5.112;2023-08-06T09:29:17;8.05;;;4.70;;
62030;SDS011;62035;52.094;5.112;2023-08-06T09:31:45;8.57;;;4.50;;
62030;SDS011;62035;52.094;5.112;2023-08-06T09:34:15;10.65;;;4.10;;
62030;SDS011;62035;52.094;5.112;2023-08-06T09:36:46;8.32;;;4.15;;
62030;SDS011;62035;52.094;5.112;2023-08-06T09:39:14;6.90;;;4.15;;
62030;SDS011;62035;52.094;5.112;2023-08-06T09:41:42;7.22;;;3.95;;
62030;SDS011;62035;52.094;5.112;2023-08-06T09:44:17;8.40;;;3.95;;
62030;SDS011;62035;52.094;5.112;2023-08-06T09:46:48;9.90;;;3.92;;
62030;SDS011;62035;52.094;5.112;2023-08-06T09:49:16;9.32;;;4.20;;
62030;SDS011;62035;52.094;5.112;2023-08-06T09:51:46;6.53;;;3.78;;
62030;SDS011;62035;52.094;5.112;2023-08-06T09:56:44;9.38;;;4.03;;
62030;SDS011;62035;52.094;5.112;2023-08-06T09:59:11;8.20;;;4.00;;
62030;SDS011;62035;52.094;5.112;2023-08-06T10:01:41;8.15;;;3.95;;
62030;SDS011;62035;52.094;5.112;2023-08-06T10:04:08;9.82;;;4.45;;
62030;SDS011;62035;52.094;5.112;2023-08-06T10:06:37;12.85;;;4.10;;
62030;SDS011;62035;52.094;5.112;2023-08-06T10:09:06;11.77;;;4.57;;
62030;SDS011;62035;52.094;5.112;2023-08-06T10:11:34;9.30;;;4.45;;
62030;SDS011;62035;52.094;5.112;2023-08-06T10:14:04;10.70;;;4.50;;
62030;SDS011;62035;52.094;5.112;2023-08-06T10:16:35;7.57;;;4.30;;
62030;SDS011;62035;52.094;5.112;2023-08-06T10:19:04;8.20;;;4.32;;
62030;SDS011;62035;52.094;5.112;2023-08-06T10:21:34;10.27;;;4.50;;
62030;SDS011;62035;52.094;5.112;2023-08-06T10:24:01;10.82;;;4.00;;
62030;SDS011;62035;52.094;5.112;2023-08-06T10:26:30;8.18;;;3.95;;
62030;SDS011;62035;52.094;5.112;2023-08-06T10:28:58;10.27;;;3.90;;
62030;SDS011;62035;52.094;5.112;2023-08-06T10:34:25;8.27;;;3.40;;
62030;SDS011;62035;52.094;5.112;2023-08-06T10:37:09;10.35;;;3.35;;
62030;SDS011;62035;52.094;5.112;2023-08-06T10:39:36;6.22;;;2.88;;
62030;SDS011;62035;52.094;5.112;2023-08-06T10:42:05;6.38;;;2.60;;
62030;SDS011;62035;52.094;5.112;2023-08-06T10:44:32;9.90;;;2.63;;
62030;SDS011;62035;52.094;5.112;2023-08-06T10:49:53;7.15;;;2.38;;
62030;SDS011;62035;52.094;5.112;2023-08-06T10:52:21;5.55;;;2.20;;
62030;SDS011;62035;52.094;5.112;2023-08-06T10:54:48;5.40;;;2.20;;
62030;SDS011;62035;52.094;5.112;2023-08-06T10:57:17;4.22;;;2.00;;
62030;SDS011;62035;52.094;5.112;2023-08-06T10:59:44;4.40;;;1.88;;
62030;SDS011;62035;52.094;5.112;2023-08-06T11:02:11;7.10;;;1.80;;
62030;SDS011;62035;52.094;5.112;2023-08-06T11:04:39;6.60;;;1.85;;
62030;SDS011;62035;52.094;5.112;2023-08-06T11:07:07;4.65;;;1.85;;
62030;SDS011;62035;52.094;5.112;2023-08-06T11:09:34;4.40;;;2.00;;
62030;SDS011;62035;52.094;5.112;2023-08-06T11:12:02;5.05;;;1.92;;
62030;SDS011;62035;52.094;5.112;2023-08-06T11:14:34;8.50;;;2.20;;
62030;SDS011;62035;52.094;5.112;2023-08-06T11:17:01;8.82;;;2.20;;
62030;SDS011;62035;52.094;5.112;2023-08-06T11:19:29;6.05;;;1.80;;
62030;SDS011;62035;52.094;5.112;2023-08-06T11:21:56;5.72;;;2.20;;
62030;SDS011;62035;52.094;5.112;2023-08-06T11:24:24;7.00;;;1.90;;
62030;SDS011;62035;52.094;5.112;2023-08-06T11:26:51;6.18;;;2.47;;
62030;SDS011;62035;52.094;5.112;2023-08-06T11:29:18;7.07;;;2.45;;
62030;SDS011;62035;52.094;5.112;2023-08-06T11:31:48;4.18;;;1.80;;
62030;SDS011;62035;52.094;5.112;2023-08-06T11:34:16;5.00;;;1.95;;
62030;SDS011;62035;52.094;5.112;2023-08-06T11:36:43;5.00;;;2.00;;
62030;SDS011;62035;52.094;5.112;2023-08-06T11:39:10;5.53;;;1.95;;
62030;SDS011;62035;52.094;5.112;2023-08-06T11:41:38;6.22;;;1.75;;
62030;SDS011;62035;52.094;5.112;2023-08-06T11:44:06;5.00;;;1.98;;
62030;SDS011;62035;52.094;5.112;2023-08-06T11:49:34;3.38;;;1.90;;
62030;SDS011;62035;52.094;5.112;2023-08-06T11:52:07;6.82;;;1.90;;
62030;SDS011;62035;52.094;5.112;2023-08-06T11:54:36;6.90;;;2.00;;
62030;SDS011;62035;52.094;5.112;2023-08-06T11:57:05;4.90;;;1.92;;
62030;SDS011;62035;52.094;5.112;2023-08-06T11:59:32;7.18;;;2.00;;
62030;SDS011;62035;52.094;5.112;2023-08-06T12:02:03;4.95;;;2.28;;
62030;SDS011;62035;52.094;5.112;2023-08-06T12:07:07;8.00;;;2.05;;
62030;SDS011;62035;52.094;5.112;2023-08-06T12:09:34;9.10;;;2.25;;
62030;SDS011;62035;52.094;5.112;2023-08-06T12:12:04;5.97;;;1.52;;
62030;SDS011;62035;52.094;5.112;2023-08-06T12:14:31;5.05;;;1.75;;
62030;SDS011;62035;52.094;5.112;2023-08-06T12:16:58;3.95;;;1.65;;
62030;SDS011;62035;52.094;5.112;2023-08-06T12:19:27;6.78;;;1.60;;
62030;SDS011;62035;52.094;5.112;2023-08-06T12:21:56;5.13;;;2.38;;
62030;SDS011;62035;52.094;5.112;2023-08-06T12:24:23;3.95;;;1.95;;
62030;SDS011;62035;52.094;5.112;2023-08-06T12:26:50;5.35;;;2.05;;
62030;SDS011;62035;52.094;5.112;2023-08-06T12:29:17;7.28;;;2.55;;
62030;SDS011;62035;52.094;5.112;2023-08-06T12:31:44;6.00;;;2.10;;
62030;SDS011;62035;52.094;5.112;2023-08-06T12:34:11;3.83;;;1.90;;
62030;SDS011;62035;52.094;5.112;2023-08-06T12:36:40;5.93;;;1.90;;
62030;SDS011;62035;52.094;5.112;2023-08-06T12:39:07;3.65;;;1.90;;
62030;SDS011;62035;52.094;5.112;2023-08-06T12:41:36;3.58;;;1.85;;
62030;SDS011;62035;52.094;5.112;2023-08-06T12:44:03;2.90;;;1.60;;
62030;SDS011;62035;52.094;5.112;2023-08-06T12:46:30;4.68;;;1.98;;
62030;SDS011;62035;52.094;5.112;2023-08-06T12:48:58;5.72;;;2.05;;
62030;SDS011;62035;52.094;5.112;2023-08-06T12:51:25;5.57;;;2.10;;
62030;SDS011;62035;52.094;5.112;2023-08-06T12:53:53;6.70;;;2.10;;
62030;SDS011;62035;52.094;5.112;2023-08-06T12:56:21;8.73;;;1.83;;
62030;SDS011;62035;52.094;5.112;2023-08-06T12:58:48;3.25;;;1.85;;
62030;SDS011;62035;52.094;5.112;2023-08-06T13:01:15;4.38;;;1.50;;
62030;SDS011;62035;52.094;5.112;2023-08-06T13:03:42;2.97;;;1.50;;
62030;SDS011;62035;52.094;5.112;2023-08-06T13:06:09;4.35;;;1.30;;
62030;SDS011;62035;52.094;5.112;2023-08-06T13:08:37;4.72;;;1.80;;
62030;SDS011;62035;52.094;5.112;2023-08-06T13:11:06;4.57;;;2.03;;
62030;SDS011;62035;52.094;5.112;2023-08-06T13:13:33;4.78;;;2.03;;
62030;SDS011;62035;52.094;5.112;2023-08-06T13:16:00;5.00;;;1.95;;
62030;SDS011;62035;52.094;5.112;2023-08-06T13:18:28;3.70;;;1.67;;
62030;SDS011;62035;52.094;5.112;2023-08-06T13:20:56;3.17;;;1.70;;
62030;SDS011;62035;52.094;5.112;2023-08-06T13:23:24;6.88;;;1.88;;
62030;SDS011;62035;52.094;5.112;2023-08-06T13:25:51;4.30;;;1.95;;
62030;SDS011;62035;52.094;5.112;2023-08-06T13:28:19;5.78;;;2.15;;
62030;SDS011;62035;52.094;5.112;2023-08-06T13:30:46;7.78;;;2.08;;
62030;SDS011;62035;52.094;5.112;2023-08-06T13:33:14;5.07;;;1.98;;
62030;SDS011;62035;52.094;5.112;2023-08-06T13:35:41;5.40;;;2.00;;
62030;SDS011;62035;52.094;5.112;2023-08-06T13:38:08;5.90;;;2.10;;
62030;SDS011;62035;52.094;5.112;2023-08-06T13:40:35;3.75;;;2.10;;
62030;SDS011;62035;52.094;5.112;2023-08-06T13:43:02;4.00;;;2.00;;
62030;SDS011;62035;52.094;5.112;2023-08-06T13:45:31;5.88;;;2.08;;
62030;SDS011;62035;52.094;5.112;2023-08-06T13:48:00;4.28;;;1.90;;
62030;SDS011;62035;52.094;5.112;2023-08-06T13:50:29;4.68;;;2.08;;
62030;SDS011;62035;52.094;5.112;2023-08-06T13:52:56;4.18;;;2.10;;
62030;SDS011;62035;52.094;5.112;2023-08-06T13:55:23;4.93;;;2.05;;
62030;SDS011;62035;52.094;5.112;2023-08-06T13:57:52;6.10;;;2.20;;
62030;SDS011;62035;52.094;5.112;2023-08-06T14:00:19;6.03;;;2.28;;
62030;SDS011;62035;52.094;5.112;2023-08-06T14:02:47;5.30;;;2.65;;
62030;SDS011;62035;52.094;5.112;2023-08-06T14:05:15;5.90;;;2.10;;
62030;SDS011;62035;52.094;5.112;2023-08-06T14:07:42;10.45;;;5.30;;
62030;SDS011;62035;52.094;5.112;2023-08-06T14:10:09;9.85;;;4.85;;
62030;SDS011;62035;52.094;5.112;2023-08-06T14:12:36;4.13;;;1.83;;
62030;SDS011;62035;52.094;5.112;2023-08-06T14:15:04;4.53;;;2.30;;
62030;SDS011;62035;52.094;5.112;2023-08-06T14:17:31;3.22;;;2.00;;
62030;SDS011;62035;52.094;5.112;2023-08-06T14:20:00;6.70;;;1.90;;
62030;SDS011;62035;52.094;5.112;2023-08-06T14:22:30;4.28;;;1.75;;
62030;SDS011;62035;52.094;5.112;2023-08-06T14:24:57;4.82;;;1.77;;
62030;SDS011;62035;52.094;5.112;2023-08-06T14:27:24;3.08;;;1.40;;
62030;SDS011;62035;52.094;5.112;2023-08-06T14:29:52;3.30;;;1.70;;
62030;SDS011;62035;52.094;5.112;2023-08-06T14:32:19;6.13;;;1.65;;
62030;SDS011;62035;52.094;5.112;2023-08-06T14:34:47;5.70;;;2.17;;
62030;SDS011;62035;52.094;5.112;2023-08-06T14:37:15;8.75;;;1.58;;
62030;SDS011;62035;52.094;5.112;2023-08-06T14:39:42;6.90;;;1.52;;
62030;SDS011;62035;52.094;5.112;2023-08-06T14:42:10;9.45;;;1.88;;
62030;SDS011;62035;52.094;5.112;2023-08-06T14:44:37;10.38;;;2.63;;
62030;SDS011;62035;52.094;5.112;2023-08-06T14:47:04;10.00;;;2.92;;
62030;SDS011;62035;52.094;5.112;2023-08-06T14:49:31;12.38;;;2.70;;
62030;SDS011;62035;52.094;5.112;2023-08-06T14:51:59;10.30;;;2.55;;
62030;SDS011;62035;52.094;5.112;2023-08-06T14:54:28;11.70;;;2.72;;
62030;SDS011;62035;52.094;5.112;2023-08-06T14:56:56;11.40;;;3.33;;
62030;SDS011;62035;52.094;5.112;2023-08-06T14:59:23;8.50;;;2.75;;
62030;SDS011;62035;52.094;5.112;2023-08-06T15:01:51;15.32;;;4.40;;